.
WxDataArchive / Data Records for 2009-06-25
2009-06-24 June 2009 2009-06-26

Data Records for Thursday, 25 June 2009

Time	Temp	Chill	HIndex	Humid	Dewpt	 Wind 	HiWind	WindDir	Rain 	Barom 
-----	----	-----	------	-----	-----	------	------	-------	-----	----- 
00:00	80.5	80.5	83.6	69	69.4	0	1	315	0.00	29.849 
00:05	80.3	80.3	83.3	69	69.2	0	1	315	0.00	29.849 
00:10	80.3	80.3	83.4	70	69.6	0	0	---	0.00	29.849 
00:15	80.1	80.1	83.1	70	69.4	0	1	315	0.00	29.847 
00:20	79.9	79.9	82.9	71	69.6	0	0	---	0.00	29.847 
00:25	79.8	79.8	82.7	71	69.5	0	0	---	0.00	29.847 
00:30	79.6	79.6	82.4	71	69.3	0	1	315	0.00	29.848 
00:35	79.4	79.4	82.2	72	69.6	0	0	---	0.00	29.848 
00:40	79.2	79.2	82.0	73	69.8	0	0	---	0.00	29.848 
00:45	79.0	79.0	81.6	73	69.6	0	0	---	0.00	29.844 
00:50	78.8	78.8	81.3	73	69.4	0	0	---	0.00	29.844 
00:55	78.6	78.6	81.1	74	69.6	0	1	315	0.00	29.844 
01:00	78.5	78.5	81.0	75	69.9	0	0	---	0.00	29.839 
01:05	78.5	78.5	81.0	75	69.9	0	0	---	0.00	29.839 
01:10	78.3	78.3	80.6	75	69.7	0	1	315	0.00	29.839 
01:15	78.3	78.3	80.6	75	69.7	0	0	---	0.00	29.839 
01:20	78.3	78.3	80.7	76	70.1	0	0	---	0.00	29.839 
01:25	78.1	78.1	80.4	76	69.9	0	0	---	0.00	29.839 
01:30	77.9	77.9	80.0	76	69.7	0	0	---	0.00	29.837 
01:35	77.7	77.7	79.7	77	69.9	0	0	---	0.00	29.837 
01:40	77.6	77.6	79.6	77	69.8	0	0	---	0.00	29.837 
01:45	77.4	77.4	79.3	78	70.0	0	0	---	0.00	29.838 
01:50	77.2	77.2	78.9	78	69.8	0	0	---	0.00	29.838 
01:55	77.0	77.0	78.6	79	70.0	0	0	---	0.00	29.838 
02:00	76.8	76.8	78.3	79	69.8	0	0	---	0.00	29.839 
02:05	76.7	76.7	78.1	80	70.0	0	0	---	0.00	29.839 
02:10	76.7	76.7	78.1	80	70.0	0	0	---	0.00	29.839 
02:15	76.5	76.5	77.8	80	69.9	0	0	---	0.00	29.840 
02:20	76.5	76.5	77.7	81	70.2	0	0	---	0.00	29.840 
02:25	76.3	76.3	77.4	81	70.0	0	0	---	0.00	29.840 
02:30	76.1	76.1	77.1	81	69.8	0	0	---	0.00	29.838 
02:35	76.1	76.1	77.1	81	69.8	0	0	---	0.00	29.838 
02:40	76.0	76.0	76.8	82	70.1	0	0	---	0.00	29.838 
02:45	75.8	75.8	76.6	81	69.5	0	0	---	0.00	29.836 
02:50	75.6	75.6	76.2	82	69.7	0	0	---	0.00	29.836 
02:55	75.4	75.4	75.8	83	69.9	0	0	---	0.00	29.836 
03:00	75.3	75.3	75.6	83	69.8	0	0	---	0.00	29.829 
03:05	75.1	75.1	75.2	84	69.9	0	0	---	0.00	29.829 
03:10	74.9	74.9	74.9	84	69.7	0	0	---	0.00	29.829 
03:15	74.7	74.7	74.7	84	69.5	0	0	---	0.00	29.824 
03:20	74.6	74.6	74.6	85	69.8	0	0	---	0.00	29.824 
03:25	74.6	74.6	74.6	85	69.8	0	0	---	0.00	29.824 
03:30	74.4	74.4	74.4	86	69.9	0	0	---	0.00	29.824 
03:35	74.4	74.4	74.4	86	69.9	0	0	---	0.00	29.824 
03:40	74.2	74.2	74.2	86	69.7	0	0	---	0.00	29.824 
03:45	74.2	74.2	74.2	86	69.7	0	0	---	0.00	29.822 
03:50	74.0	74.0	74.0	86	69.5	0	0	---	0.00	29.822 
03:55	74.0	74.0	74.0	86	69.5	0	0	---	0.00	29.822 
04:00	73.9	73.9	73.9	86	69.4	0	0	---	0.00	29.821 
04:05	73.9	73.9	73.9	86	69.4	0	0	---	0.00	29.821 
04:10	73.9	73.9	73.9	86	69.4	0	0	---	0.00	29.821 
04:15	73.9	73.9	73.9	86	69.4	0	0	---	0.00	29.825 
04:20	74.0	74.0	74.0	86	69.5	0	1	315	0.00	29.825 
04:25	74.6	74.6	74.6	85	69.8	0	1	315	0.00	29.825 
04:30	74.7	74.7	74.7	85	69.9	0	1	315	0.00	29.831 
04:35	74.7	74.7	74.7	84	69.5	0	1	315	0.00	29.831 
04:40	74.9	74.9	74.9	84	69.7	0	1	315	0.00	29.831 
04:45	74.9	74.9	74.9	84	69.7	0	1	315	0.00	29.829 
04:50	75.1	75.1	75.3	83	69.6	0	1	315	0.00	29.829 
04:55	75.1	75.1	75.3	83	69.6	0	0	---	0.00	29.829 
05:00	74.9	74.9	74.9	83	69.4	0	0	---	0.00	29.830 
05:05	74.9	74.9	74.9	83	69.4	0	0	---	0.00	29.830 
05:10	74.9	74.9	74.9	83	69.4	0	0	---	0.00	29.830 
05:15	74.9	74.9	74.9	83	69.4	0	0	---	0.00	29.829 
05:20	74.7	74.7	74.7	83	69.2	0	0	---	0.00	29.829 
05:25	74.7	74.7	74.7	83	69.2	0	1	315	0.00	29.829 
05:30	74.6	74.6	74.6	83	69.1	0	1	315	0.00	29.835 
05:35	74.6	74.6	74.6	84	69.4	0	1	315	0.00	29.835 
05:40	74.6	74.6	74.6	84	69.4	0	1	315	0.00	29.835 
05:45	74.4	74.4	74.4	84	69.2	0	0	---	0.00	29.832 
05:50	74.4	74.4	74.4	84	69.2	0	1	315	0.00	29.832 
05:55	74.4	74.4	74.4	84	69.2	0	0	---	0.00	29.832 
06:00	74.2	74.2	74.2	84	69.0	0	0	---	0.00	29.839 
06:05	74.2	74.2	74.2	85	69.4	0	0	---	0.00	29.839 
06:10	74.2	74.2	74.2	85	69.4	0	0	---	0.00	29.839 
06:15	74.0	74.0	74.0	85	69.2	0	0	---	0.00	29.839 
06:20	74.0	74.0	74.0	85	69.2	0	0	---	0.00	29.839 
06:25	74.0	74.0	74.0	86	69.5	0	0	---	0.00	29.839 
06:30	74.0	74.0	74.0	86	69.5	0	0	---	0.00	29.842 
06:35	74.0	74.0	74.0	86	69.5	0	0	---	0.00	29.842 
06:40	74.0	74.0	74.0	86	69.5	0	0	---	0.00	29.842 
06:45	74.0	74.0	74.0	87	69.9	0	0	---	0.00	29.840 
06:50	74.0	74.0	74.0	87	69.9	0	0	---	0.00	29.840 
06:55	74.2	74.2	74.2	87	70.1	0	0	---	0.00	29.840 
07:00	74.2	74.2	74.2	87	70.1	0	0	---	0.00	29.841 
07:05	74.4	74.4	74.4	87	70.3	0	0	---	0.00	29.841 
07:10	74.6	74.6	74.6	87	70.5	0	0	---	0.00	29.841 
07:15	74.7	74.7	74.7	87	70.6	0	0	---	0.00	29.848 
07:20	74.9	74.9	74.9	87	70.8	0	0	---	0.00	29.848 
07:25	74.9	74.9	74.9	87	70.8	0	0	---	0.00	29.848 
07:30	75.3	75.3	75.2	86	70.8	0	0	---	0.00	29.848 
07:35	75.4	75.4	75.4	86	70.9	0	0	---	0.00	29.848 
07:40	75.8	75.8	76.2	85	71.0	0	1	315	0.00	29.848 
07:45	76.1	76.1	76.8	84	70.9	0	1	315	0.00	29.843 
07:50	76.7	76.7	77.9	84	71.5	0	1	315	0.00	29.843 
07:55	77.0	77.0	78.5	82	71.1	0	2	315	0.00	29.843 
08:00	77.4	77.4	79.2	81	71.1	0	1	315	0.00	29.849 
08:05	77.7	77.7	79.8	81	71.4	0	1	315	0.00	29.849 
08:10	78.3	78.3	80.8	80	71.6	0	2	315	0.00	29.849 
08:15	78.8	78.8	81.7	79	71.7	0	1	315	0.00	29.850 
08:20	79.4	79.4	82.8	78	71.9	0	2	315	0.00	29.850 
08:25	79.9	79.9	83.6	77	72.0	0	1	315	0.00	29.850 
08:30	80.5	80.5	84.7	76	72.2	0	2	315	0.00	29.850 
08:35	80.7	80.7	84.9	75	72.0	1	2	248	0.00	29.850 
08:40	80.9	80.9	85.3	75	72.2	0	1	248	0.00	29.850 
08:45	81.2	81.2	85.5	73	71.7	1	2	248	0.00	29.848 
08:50	81.6	81.6	86.1	72	71.7	0	2	270	0.00	29.848 
08:55	82.2	82.2	87.0	71	71.8	1	2	270	0.00	29.848 
09:00	82.4	82.4	87.2	70	71.6	0	2	270	0.00	29.845 
09:05	83.0	83.0	88.1	69	71.8	0	1	270	0.00	29.845 
09:10	83.4	83.4	88.9	69	72.1	0	2	292	0.00	29.845 
09:15	83.8	83.8	88.8	66	71.2	1	2	292	0.00	29.849 
09:20	84.1	84.1	89.1	65	71.0	0	1	292	0.00	29.849 
09:25	84.3	84.3	89.5	65	71.2	1	2	292	0.00	29.849 
09:30	84.5	84.5	89.3	63	70.5	0	2	292	0.00	29.845 
09:35	84.5	84.5	89.3	63	70.5	0	2	292	0.00	29.845 
09:40	84.7	84.7	89.6	63	70.7	0	1	292	0.00	29.845 
09:45	85.1	85.1	89.8	61	70.1	1	3	292	0.00	29.839 
09:50	85.5	85.5	90.5	61	70.5	1	3	292	0.00	29.839 
09:55	85.7	85.7	90.5	60	70.2	1	2	292	0.00	29.839 
10:00	85.9	85.9	91.3	61	70.9	1	2	292	0.00	29.836 
10:05	86.3	86.3	91.3	59	70.2	0	2	292	0.00	29.836 
10:10	86.5	86.5	91.3	58	69.9	0	2	292	0.00	29.836 
10:15	87.0	87.0	92.7	59	70.9	1	2	292	0.00	29.837 
10:20	87.4	87.4	93.0	58	70.8	1	2	292	0.00	29.837 
10:25	87.6	87.6	93.4	58	71.0	1	2	315	0.00	29.837 
10:30	87.8	87.8	92.2	54	69.0	0	2	315	0.00	29.828 
10:35	88.0	88.0	92.6	54	69.2	0	1	292	0.00	29.828 
10:40	88.2	88.2	93.8	56	70.5	1	2	292	0.00	29.828 
10:45	88.2	88.2	92.5	53	68.9	0	2	292	0.00	29.822 
10:50	88.6	88.6	93.3	53	69.2	0	2	292	0.00	29.822 
10:55	88.8	88.8	93.2	52	68.9	0	2	292	0.00	29.822 
11:00	88.8	88.8	93.2	52	68.9	1	2	292	0.00	29.819 
11:05	88.8	88.8	93.2	52	68.9	0	1	292	0.00	29.819 
11:10	89.3	89.3	93.3	50	68.2	1	2	292	0.00	29.819 
11:15	89.5	89.5	92.4	47	66.6	1	2	292	0.00	29.819 
11:20	89.7	89.7	93.6	49	68.0	1	2	292	0.00	29.819 
11:25	90.1	90.1	94.3	49	68.3	0	4	292	0.00	29.819 
11:30	90.7	90.7	95.9	50	69.5	0	1	292	0.00	29.817 
11:35	91.0	91.0	96.0	49	69.1	0	1	292	0.00	29.817 
11:40	91.0	91.0	96.0	49	69.1	1	3	292	0.00	29.817 
11:45	91.0	91.0	96.0	49	69.1	1	3	292	0.00	29.817 
11:50	90.7	90.7	94.5	47	67.7	1	3	292	0.00	29.817 
11:55	90.7	90.7	95.0	48	68.3	1	2	292	0.00	29.817 
12:00	91.0	91.0	95.1	47	67.9	1	4	292	0.00	29.815 
12:05	91.0	91.0	96.5	50	69.7	1	3	315	0.00	29.815 
12:10	91.2	91.2	95.9	48	68.7	0	2	315	0.00	29.815 
12:15	91.2	91.2	95.0	46	67.5	1	3	292	0.00	29.817 
12:20	90.5	90.5	93.8	46	66.8	1	4	292	0.00	29.817 
12:25	90.5	90.5	95.5	50	69.3	1	3	292	0.00	29.817 
12:30	90.3	90.3	93.4	46	66.7	1	3	270	0.00	29.812 
12:35	89.7	89.7	92.8	47	66.7	0	1	270	0.00	29.812 
12:40	89.5	89.5	93.2	49	67.8	1	3	270	0.00	29.812 
12:45	90.3	90.3	93.8	47	67.3	1	4	270	0.00	29.803 
12:50	91.4	91.4	96.8	49	69.5	0	2	270	0.00	29.803 
12:55	92.3	92.3	99.2	50	70.9	1	3	248	0.00	29.803 
13:00	92.7	92.7	97.3	45	68.2	1	4	225	0.00	29.801 
13:05	92.7	92.7	96.3	43	66.9	1	4	270	0.00	29.801 
13:10	92.9	92.9	96.2	42	66.4	1	2	292	0.00	29.801 
13:15	92.9	92.9	96.7	43	67.1	1	3	292	0.00	29.803 
13:20	93.4	93.4	98.1	44	68.2	0	3	292	0.00	29.803 
13:25	93.6	93.6	98.0	43	67.7	1	4	315	0.00	29.803 
13:30	93.6	93.6	97.4	42	67.0	1	3	270	0.00	29.797 
13:35	93.6	93.6	96.5	40	65.6	1	3	315	0.00	29.797 
13:40	93.4	93.4	97.6	43	67.5	1	4	315	0.00	29.797 
13:45	93.4	93.4	97.6	43	67.5	1	3	248	0.00	29.803 
13:50	93.4	93.4	96.6	41	66.1	1	3	270	0.00	29.803 
13:55	93.8	93.8	96.3	39	65.0	1	4	292	0.00	29.803 
14:00	94.0	94.0	97.7	41	66.7	1	4	292	0.00	29.797 
14:05	94.0	94.0	97.2	40	65.9	1	2	292	0.00	29.797 
14:10	93.6	93.6	97.4	42	67.0	2	4	292	0.00	29.797 
14:15	93.2	93.2	97.2	43	67.3	2	3	292	0.00	29.795 
14:20	93.2	93.2	97.2	43	67.3	2	3	315	0.00	29.795 
14:25	92.9	92.9	96.7	43	67.1	1	4	270	0.00	29.795 
14:30	92.3	92.3	96.1	44	67.2	1	3	270	0.00	29.793 
14:35	92.3	92.3	97.0	46	68.5	1	3	270	0.00	29.793 
14:40	92.9	92.9	98.2	46	69.0	1	5	270	0.00	29.793 
14:45	93.6	93.6	97.4	42	67.0	1	3	270	0.00	29.782 
14:50	94.0	94.0	97.7	41	66.7	2	4	248	0.00	29.782 
14:55	94.3	94.3	97.7	40	66.2	1	3	270	0.00	29.782 
15:00	94.3	94.3	98.2	41	66.9	2	5	315	0.00	29.775 
15:05	93.8	93.8	97.8	42	67.2	1	3	270	0.00	29.775 
15:10	93.6	93.6	97.4	42	67.0	2	4	292	0.00	29.775 
15:15	93.6	93.6	97.4	42	67.0	2	5	292	0.00	29.766 
15:20	93.8	93.8	97.3	41	66.5	2	5	270	0.00	29.766 
15:25	93.4	93.4	97.6	43	67.5	2	4	270	0.00	29.766 
15:30	93.4	93.4	97.1	42	66.8	2	6	270	0.00	29.761 
15:35	93.6	93.6	97.0	41	66.3	2	4	270	0.00	29.761 
15:40	93.4	93.4	97.1	42	66.8	2	5	270	0.00	29.761 
15:45	93.4	93.4	96.6	41	66.1	2	3	248	0.00	29.753 
15:50	93.2	93.2	96.7	42	66.6	2	4	270	0.00	29.753 
15:55	93.4	93.4	97.6	43	67.5	2	4	270	0.00	29.753 
16:00	93.6	93.6	96.5	40	65.6	3	5	270	0.00	29.736 
16:05	93.2	93.2	96.7	42	66.6	2	5	270	0.00	29.736 
16:10	93.6	93.6	96.0	39	64.9	2	6	270	0.00	29.736 
16:15	93.6	93.6	96.5	40	65.6	2	4	292	0.00	29.729 
16:20	93.6	93.6	96.0	39	64.9	2	6	248	0.00	29.729 
16:25	93.6	93.6	95.5	38	64.1	3	6	270	0.00	29.729 
16:30	93.6	93.6	95.5	38	64.1	3	6	270	0.00	29.726 
16:35	93.6	93.6	95.1	37	63.4	3	5	270	0.00	29.726 
16:40	93.6	93.6	95.5	38	64.1	2	6	270	0.00	29.726 
16:45	93.4	93.4	95.2	38	63.9	3	5	270	0.00	29.727 
16:50	93.2	93.2	95.3	39	64.5	3	7	270	0.00	29.727 
16:55	92.9	92.9	95.3	40	65.0	3	6	270	0.00	29.727 
17:00	93.2	93.2	94.9	38	63.8	3	6	270	0.00	29.722 
17:05	93.4	93.4	95.7	39	64.7	2	6	270	0.00	29.722 
17:10	92.7	92.7	94.9	40	64.8	2	4	270	0.00	29.722 
17:15	93.2	93.2	96.2	41	65.9	2	5	270	0.00	29.715 
17:20	93.4	93.4	95.2	38	63.9	3	5	270	0.00	29.715 
17:25	92.9	92.9	94.8	39	64.2	3	6	292	0.00	29.715 
17:30	92.5	92.5	94.6	40	64.6	1	3	292	0.00	29.720 
17:35	92.7	92.7	95.4	41	65.5	2	4	270	0.00	29.720 
17:40	92.5	92.5	95.9	43	66.7	1	3	292	0.00	29.720 
17:45	92.1	92.1	95.7	44	67.0	2	4	270	0.00	29.719 
17:50	91.8	91.8	95.6	45	67.4	2	4	315	0.00	29.719 
17:55	91.8	91.8	95.6	45	67.4	3	6	270	0.00	29.719 
18:00	91.4	91.4	95.4	46	67.7	2	4	292	0.00	29.721 
18:05	91.6	91.6	95.7	46	67.8	3	6	270	0.00	29.721 
18:10	91.2	91.2	95.5	47	68.1	2	4	248	0.00	29.721 
18:15	91.6	91.6	95.7	46	67.8	2	5	292	0.00	29.723 
18:20	91.6	91.6	94.4	43	65.9	2	5	270	0.00	29.723 
18:25	91.6	91.6	94.8	44	66.6	2	5	315	0.00	29.723 
18:30	91.4	91.4	94.5	44	66.4	2	4	315	0.00	29.722 
18:35	91.2	91.2	93.7	43	65.5	2	5	315	0.00	29.722 
18:40	91.2	91.2	93.7	43	65.5	2	5	270	0.00	29.722 
18:45	91.2	91.2	93.3	42	64.9	2	5	292	0.00	29.722 
18:50	91.4	91.4	92.4	39	62.9	2	5	292	0.00	29.722 
18:55	91.2	91.2	92.9	41	64.2	2	5	270	0.00	29.722 
19:00	91.4	91.4	92.8	40	63.6	1	5	315	0.00	29.719 
19:05	91.4	91.4	93.6	42	65.0	2	4	292	0.00	29.719 
19:10	91.2	91.2	93.3	42	64.9	2	4	315	0.00	29.719 
19:15	91.0	91.0	93.0	42	64.7	2	5	270	0.00	29.714 
19:20	90.7	90.7	92.9	43	65.1	2	4	270	0.00	29.714 
19:25	90.7	90.7	92.9	43	65.1	1	3	315	0.00	29.714 
19:30	90.5	90.5	92.5	43	64.9	1	3	315	0.00	29.719 
19:35	90.3	90.3	92.2	43	64.7	2	5	270	0.00	29.719 
19:40	90.1	90.1	92.3	44	65.2	1	3	315	0.00	29.719 
19:45	89.7	89.7	92.4	46	66.1	1	3	292	0.00	29.717 
19:50	89.5	89.5	92.1	46	65.9	1	2	292	0.00	29.717 
19:55	89.5	89.5	92.4	47	66.6	1	2	315	0.00	29.717 
20:00	89.5	89.5	93.2	49	67.8	0	2	315	0.00	29.716 
20:05	89.3	89.3	93.7	51	68.8	1	2	315	0.00	29.716 
20:10	88.8	88.8	93.2	52	68.9	0	1	315	0.00	29.716 
20:15	88.6	88.6	93.3	53	69.2	0	1	315	0.00	29.713 
20:20	88.2	88.2	92.9	54	69.4	0	1	315	0.00	29.713 
20:25	88.0	88.0	92.6	54	69.2	0	1	315	0.00	29.713 
20:30	87.6	87.6	92.2	55	69.4	0	0	---	0.00	29.714 
20:35	87.4	87.4	92.2	56	69.7	0	2	315	0.00	29.714 
20:40	87.0	87.0	91.9	57	69.9	0	0	---	0.00	29.714 
20:45	86.5	86.5	91.3	58	69.9	0	0	---	0.00	29.716 
20:50	86.1	86.1	90.6	58	69.6	0	1	315	0.00	29.716 
20:55	85.9	85.9	90.2	58	69.4	0	1	315	0.00	29.716 
21:00	85.7	85.7	90.2	59	69.7	0	1	315	0.00	29.720 
21:05	85.5	85.5	89.8	59	69.5	0	0	---	0.00	29.720 
21:10	85.3	85.3	89.5	59	69.3	0	1	315	0.00	29.720 
21:15	85.1	85.1	89.4	60	69.6	0	0	---	0.00	29.721 
21:20	84.9	84.9	89.4	61	69.9	0	1	315	0.00	29.721 
21:25	84.5	84.5	88.7	61	69.5	0	0	---	0.00	29.721 
21:30	84.3	84.3	88.3	61	69.4	0	0	---	0.00	29.715 
21:35	84.0	84.0	88.1	62	69.5	0	0	---	0.00	29.715 
21:40	83.8	83.8	87.7	62	69.4	0	0	---	0.00	29.715 
21:45	83.4	83.4	87.0	62	69.0	0	0	---	0.00	29.720 
21:50	83.2	83.2	86.7	62	68.8	0	0	---	0.00	29.720 
21:55	82.8	82.8	86.1	62	68.4	0	0	---	0.00	29.720 
22:00	82.6	82.6	85.7	62	68.2	0	0	---	0.00	29.725 
22:05	82.4	82.4	85.6	63	68.5	0	0	---	0.00	29.725 
22:10	82.0	82.0	85.0	63	68.1	0	0	---	0.00	29.725 
22:15	81.8	81.8	84.9	64	68.4	0	0	---	0.00	29.723 
22:20	81.6	81.6	84.6	64	68.2	0	0	---	0.00	29.723 
22:25	81.4	81.4	84.4	65	68.5	0	0	---	0.00	29.723 
22:30	81.2	81.2	84.1	65	68.3	0	0	---	0.00	29.725 
22:35	81.1	81.1	84.1	66	68.6	0	0	---	0.00	29.725 
22:40	80.9	80.9	84.0	67	68.9	0	0	---	0.00	29.725 
22:45	80.7	80.7	83.8	68	69.1	0	0	---	0.00	29.722 
22:50	80.5	80.5	83.6	69	69.4	0	0	---	0.00	29.722 
22:55	80.5	80.5	83.6	69	69.4	0	0	---	0.00	29.722 
23:00	80.3	80.3	83.3	69	69.2	0	0	---	0.00	29.723 
23:05	80.3	80.3	83.4	70	69.6	0	2	315	0.00	29.723 
23:10	80.5	80.5	83.5	68	68.9	3	6	90	0.00	29.723 
23:15	80.3	80.3	83.2	68	68.8	2	3	90	0.00	29.724 
23:20	79.9	79.9	82.7	69	68.8	3	6	68	0.00	29.724 
23:25	79.4	79.4	82.0	70	68.7	2	4	90	0.00	29.724 
23:30	79.0	79.0	81.5	71	68.8	1	3	112	0.00	29.723 
23:35	78.8	78.8	81.3	72	69.0	1	3	112	0.00	29.723 
23:40	78.5	78.5	80.9	73	69.1	1	4	90	0.00	29.723 
23:45	78.1	78.1	80.3	74	69.1	1	3	90	0.00	29.728 
23:50	77.9	77.9	80.0	74	68.9	0	2	90	0.00	29.728 
23:55	77.7	77.7	79.7	76	69.5	1	4	90	0.00	29.728 

CoCoRaHS
IN-AL-39
A2 Web Hosting
Creative Commons License
GoDaddy
search engine by freefind advanced

loaded 2018-11-16 23:31:31 • last modified 2010-11-18 10:43:29
Privacy PolicyDisclaimer
• wx.awcolley.com is powered by PmWiki v.2002016 •
• all content (unless otherwise noted) © 2018 A W Colley